createdAt,value
2022-12-26T00:00:04.936Z,47.70
2022-12-26T00:05:02.077Z,48.40
2022-12-26T00:10:01.932Z,43.60
2022-12-26T00:15:02.123Z,44.70
2022-12-26T00:20:02.799Z,46.30
2022-12-26T00:25:01.951Z,42.60
2022-12-26T00:30:02.320Z,43.70
2022-12-26T00:35:01.984Z,45.70
2022-12-26T00:40:02.240Z,42.20
2022-12-26T00:45:02.154Z,42.70
2022-12-26T00:50:13.542Z,43.30
2022-12-26T00:55:01.938Z,44.50
2022-12-26T01:00:02.102Z,39.40
2022-12-26T01:05:01.830Z,37.80
2022-12-26T01:10:02.593Z,41.80
2022-12-26T01:15:03.677Z,40.60
2022-12-26T01:20:02.604Z,39.50
2022-12-26T01:25:02.016Z,42.10
2022-12-26T01:30:03.108Z,44.00
2022-12-26T01:35:02.023Z,40.40
2022-12-26T01:40:01.792Z,45.40
2022-12-26T01:45:05.900Z,42.80
2022-12-26T01:50:03.606Z,46.80
2022-12-26T01:55:04.430Z,42.90
2022-12-26T02:00:05.394Z,45.00
2022-12-26T02:05:11.800Z,46.90
2022-12-26T02:10:02.869Z,49.20
2022-12-26T02:15:04.012Z,46.70
2022-12-26T02:20:14.284Z,47.60
2022-12-26T02:25:21.639Z,45.10
2022-12-26T02:30:08.001Z,45.40
2022-12-26T02:35:07.678Z,44.60
2022-12-26T02:40:16.296Z,51.30
2022-12-26T02:45:18.321Z,43.70
2022-12-26T02:50:20.522Z,46.60
2022-12-26T02:55:18.176Z,44.90
2022-12-26T03:00:15.702Z,44.90
2022-12-26T03:05:12.795Z,44.60
2022-12-26T03:10:18.662Z,46.80
2022-12-26T03:15:05.185Z,46.20
2022-12-26T03:20:05.022Z,47.10
2022-12-26T03:25:16.117Z,42.60
2022-12-26T03:30:12.914Z,46.20
2022-12-26T03:35:10.860Z,42.20
2022-12-26T03:40:18.669Z,42.90
2022-12-26T03:45:22.581Z,37.90
2022-12-26T03:50:17.756Z,38.50
2022-12-26T03:55:17.250Z,41.10
2022-12-26T04:00:15.531Z,45.90
2022-12-26T04:05:16.115Z,44.90
2022-12-26T04:10:17.996Z,43.10
2022-12-26T04:15:16.547Z,46.10
2022-12-26T04:20:12.738Z,40.70
2022-12-26T04:25:19.186Z,39.30
2022-12-26T04:30:12.917Z,33.20
2022-12-26T04:35:18.904Z,37.20
2022-12-26T04:40:12.530Z,34.40
2022-12-26T04:45:03.287Z,38.30
2022-12-26T04:50:12.537Z,39.40
2022-12-26T04:55:01.618Z,37.00
2022-12-26T05:00:03.881Z,33.90
2022-12-26T05:05:11.571Z,33.70
2022-12-26T05:10:03.415Z,34.10
2022-12-26T05:15:01.958Z,32.10
2022-12-26T05:20:11.523Z,33.80
2022-12-26T05:25:11.839Z,30.90
2022-12-26T05:30:02.816Z,29.00
2022-12-26T05:35:01.672Z,32.50
2022-12-26T05:40:01.912Z,27.20
2022-12-26T05:45:02.094Z,24.40
2022-12-26T05:50:01.899Z,27.30
2022-12-26T05:55:01.589Z,26.10
2022-12-26T06:00:03.042Z,24.20
2022-12-26T06:05:01.607Z,25.10
2022-12-26T06:10:01.722Z,25.20
2022-12-26T06:15:02.413Z,24.20
2022-12-26T06:20:01.534Z,22.70
2022-12-26T06:25:01.613Z,19.10
2022-12-26T06:30:01.895Z,20.60
2022-12-26T06:35:01.557Z,20.30
2022-12-26T06:40:01.682Z,18.80
2022-12-26T06:45:02.067Z,19.20
2022-12-26T06:50:01.476Z,20.30
2022-12-26T06:55:01.779Z,19.20
2022-12-26T07:00:03.235Z,20.40
2022-12-26T07:05:01.768Z,20.20
2022-12-26T07:10:01.639Z,20.80
2022-12-26T07:15:02.355Z,19.10
2022-12-26T07:20:01.759Z,20.10
2022-12-26T07:25:01.573Z,20.40
2022-12-26T07:30:02.055Z,19.80
2022-12-26T07:35:01.511Z,20.70
2022-12-26T07:40:01.787Z,19.50
2022-12-26T07:45:01.995Z,18.00
2022-12-26T07:50:01.473Z,18.60
2022-12-26T07:55:01.511Z,19.90
2022-12-26T08:00:03.975Z,17.50
2022-12-26T08:05:01.455Z,18.70
2022-12-26T08:10:01.658Z,19.70
2022-12-26T08:15:01.646Z,23.30
2022-12-26T08:20:01.538Z,22.20
2022-12-26T08:25:01.515Z,22.80
2022-12-26T08:30:03.024Z,24.60
2022-12-26T08:35:02.346Z,26.50
2022-12-26T08:40:01.562Z,28.10
2022-12-26T08:45:01.738Z,27.20
2022-12-26T08:50:01.386Z,28.00
2022-12-26T08:55:02.121Z,30.10
2022-12-26T09:00:03.470Z,26.40
2022-12-26T09:05:01.624Z,30.80
2022-12-26T09:10:01.700Z,33.00
2022-12-26T09:15:02.081Z,32.00
2022-12-26T09:20:01.637Z,26.30
2022-12-26T09:25:01.592Z,31.30
2022-12-26T09:30:01.494Z,23.10
2022-12-26T09:35:01.762Z,26.40
2022-12-26T09:40:03.300Z,25.30
2022-12-26T09:45:09.469Z,27.00
2022-12-26T09:50:10.273Z,26.90
2022-12-26T09:55:05.785Z,30.40
2022-12-26T10:00:04.537Z,31.00
2022-12-26T10:05:01.448Z,28.60
2022-12-26T10:10:09.564Z,28.80
2022-12-26T10:15:11.878Z,23.50
2022-12-26T10:20:20.202Z,23.30
2022-12-26T10:25:03.371Z,23.30
2022-12-26T10:30:05.369Z,23.90
2022-12-26T10:35:20.531Z,24.80
2022-12-26T10:40:13.305Z,26.80
2022-12-26T10:45:11.871Z,24.90
2022-12-26T10:50:02.344Z,25.90
2022-12-26T10:55:27.158Z,26.00
2022-12-26T11:00:08.265Z,27.70
2022-12-26T11:10:02.191Z,27.90
2022-12-26T11:15:04.755Z,27.60
2022-12-26T11:20:11.525Z,28.10
2022-12-26T11:25:11.143Z,26.40
2022-12-26T11:30:16.602Z,24.30
2022-12-26T11:35:02.490Z,32.50
2022-12-26T11:40:01.707Z,38.80
2022-12-26T11:45:10.318Z,42.10
2022-12-26T11:50:04.683Z,59.30
2022-12-26T11:55:01.460Z,48.30
2022-12-26T12:00:15.319Z,29.00
2022-12-26T12:05:12.455Z,41.10
2022-12-26T12:10:09.300Z,22.20
2022-12-26T12:15:12.008Z,20.20
2022-12-26T12:20:17.593Z,26.00
2022-12-26T12:25:19.472Z,22.40
2022-12-26T12:30:15.858Z,20.60
2022-12-26T12:35:18.131Z,19.60
2022-12-26T12:40:16.854Z,17.70
2022-12-26T12:45:13.132Z,17.20
2022-12-26T12:50:12.757Z,17.80
2022-12-26T12:55:18.776Z,30.00
2022-12-26T13:00:12.169Z,19.10
2022-12-26T13:05:10.810Z,18.50
2022-12-26T13:10:05.593Z,17.60
2022-12-26T13:15:05.927Z,17.00
2022-12-26T13:20:04.813Z,20.50
2022-12-26T13:25:02.277Z,25.00
2022-12-26T13:30:04.107Z,16.40
2022-12-26T13:35:02.690Z,17.20
2022-12-26T13:40:05.397Z,20.60
2022-12-26T13:45:23.484Z,26.70
2022-12-26T13:50:21.029Z,19.80
2022-12-26T13:55:21.077Z,21.50
2022-12-26T14:00:20.916Z,17.40
2022-12-26T14:05:13.665Z,17.70
2022-12-26T14:10:10.007Z,15.60
2022-12-26T14:15:17.698Z,16.50
2022-12-26T14:20:13.997Z,15.80
2022-12-26T14:25:08.919Z,17.40
2022-12-26T14:30:16.570Z,16.80
2022-12-26T14:35:10.054Z,14.60
2022-12-26T14:40:07.656Z,15.80
2022-12-26T14:45:04.299Z,14.90
2022-12-26T14:50:20.989Z,17.70
2022-12-26T14:55:21.237Z,16.60
2022-12-26T15:00:14.344Z,16.20
2022-12-26T15:05:07.501Z,15.20
2022-12-26T15:10:20.999Z,17.90
2022-12-26T15:15:20.922Z,16.20
2022-12-26T15:20:17.588Z,17.50
2022-12-26T15:25:21.415Z,17.60
2022-12-26T15:30:14.073Z,14.80
2022-12-26T15:35:11.315Z,18.10
2022-12-26T15:40:13.797Z,14.90
2022-12-26T15:45:21.739Z,18.70
2022-12-26T15:50:17.755Z,18.20
2022-12-26T15:55:19.330Z,15.00
2022-12-26T16:00:13.948Z,16.20
2022-12-26T16:05:19.737Z,18.70
2022-12-26T16:10:01.716Z,22.10
2022-12-26T16:15:14.788Z,14.00
2022-12-26T16:20:18.810Z,15.60
2022-12-26T16:25:02.308Z,16.40
2022-12-26T16:30:11.607Z,17.70
2022-12-26T16:35:01.922Z,17.50
2022-12-26T16:40:17.100Z,20.50
2022-12-26T16:45:01.364Z,20.10
2022-12-26T16:50:03.642Z,20.20
2022-12-26T16:55:20.908Z,18.60
2022-12-26T17:00:01.341Z,22.20
2022-12-26T17:05:05.431Z,18.40
2022-12-26T17:10:02.461Z,19.50
2022-12-26T17:15:02.765Z,18.50
2022-12-26T17:20:20.934Z,17.60
2022-12-26T17:25:20.036Z,16.80
2022-12-26T17:30:19.878Z,14.50
2022-12-26T17:35:05.516Z,17.70
2022-12-26T17:40:06.694Z,15.70
2022-12-26T17:45:01.041Z,14.50
2022-12-26T17:50:01.094Z,14.40
2022-12-26T17:55:02.818Z,12.80
2022-12-26T18:00:01.607Z,13.10
2022-12-26T18:05:01.134Z,12.70
2022-12-26T18:10:01.667Z,13.80
2022-12-26T18:15:02.330Z,19.20
2022-12-26T18:20:01.504Z,16.40
2022-12-26T18:25:01.693Z,17.70
2022-12-26T18:30:01.335Z,17.80
2022-12-26T18:35:01.032Z,16.70
2022-12-26T18:40:01.547Z,17.60
2022-12-26T18:45:00.942Z,18.40
2022-12-26T18:50:01.008Z,16.30
2022-12-26T18:55:01.168Z,16.40
2022-12-26T19:00:02.964Z,15.70
2022-12-26T19:05:01.921Z,16.50
2022-12-26T19:10:01.168Z,17.70
2022-12-26T19:15:01.239Z,21.20
2022-12-26T19:20:01.307Z,19.30
2022-12-26T19:25:01.508Z,15.40
2022-12-26T19:30:01.053Z,17.50
2022-12-26T19:35:01.084Z,17.10
2022-12-26T19:40:01.239Z,17.30
2022-12-26T19:45:00.928Z,19.20
2022-12-26T19:50:01.534Z,17.90
2022-12-26T19:55:03.691Z,16.80
2022-12-26T20:00:01.073Z,18.50
2022-12-26T20:05:01.048Z,17.60
2022-12-26T20:10:01.119Z,15.60
2022-12-26T20:15:01.065Z,17.20
2022-12-26T20:20:00.989Z,18.30
2022-12-26T20:25:01.500Z,17.70
2022-12-26T20:30:01.656Z,17.90
2022-12-26T20:35:00.945Z,16.20
2022-12-26T20:40:01.177Z,16.60
2022-12-26T20:45:00.932Z,15.90
2022-12-26T20:50:01.062Z,17.40
2022-12-26T20:55:01.273Z,16.70
2022-12-26T21:00:01.034Z,15.80
2022-12-26T21:05:01.084Z,16.10
2022-12-26T21:10:01.127Z,16.40
2022-12-26T21:15:00.958Z,15.60
2022-12-26T21:20:00.958Z,18.60
2022-12-26T21:25:01.274Z,17.80
2022-12-26T21:30:01.046Z,25.40
2022-12-26T21:35:01.165Z,15.70
2022-12-26T21:40:01.216Z,60.30
2022-12-26T21:45:00.880Z,20.70
2022-12-26T21:50:00.921Z,24.00
2022-12-26T21:55:11.402Z,23.00
2022-12-26T22:00:02.275Z,22.80
2022-12-26T22:05:01.336Z,16.40
2022-12-26T22:10:02.071Z,17.80
2022-12-26T22:15:00.844Z,18.10
2022-12-26T22:20:00.854Z,16.30
2022-12-26T22:25:01.135Z,18.00
2022-12-26T22:30:00.833Z,14.70
2022-12-26T22:35:00.872Z,15.30
2022-12-26T22:40:00.972Z,14.50
2022-12-26T22:45:01.065Z,15.10
2022-12-26T22:50:00.749Z,13.80
2022-12-26T22:55:01.192Z,14.50
2022-12-26T23:00:09.775Z,16.00
2022-12-26T23:05:01.135Z,16.70
2022-12-26T23:10:01.095Z,15.50
2022-12-26T23:15:01.111Z,14.20
2022-12-26T23:20:11.276Z,15.20
2022-12-26T23:25:01.503Z,14.00
2022-12-26T23:30:10.981Z,13.00
2022-12-26T23:35:01.136Z,13.00
2022-12-26T23:40:01.085Z,15.40
2022-12-26T23:45:00.962Z,16.50
2022-12-26T23:50:00.806Z,17.60
2022-12-26T23:55:01.207Z,19.50
